Time;durP1;ratioP1;P1;durP2;ratioP2;P2;SDS_P1;SDS_P2;PMS_P1;PMS_P2;Temp;Humidity;BMP_temperature;BMP_pressure;BME280_temperature;BME280_humidity;BME280_pressure;Samples;Min_cycle;Max_cycle;Signal;HPM_P1;HPM_P2
2023/01/21 00:01:02;;;;;;;;;11.00;11.00;;;;;9.21;100.00;101884.81;5032802;28;45948;-75
2023/01/21 00:03:27;;;;;;;;;13.33;11.67;;;;;9.10;100.00;101878.44;5020696;28;45475;-77
2023/01/21 00:05:53;;;;;;;;;12.00;11.00;;;;;8.99;100.00;101887.34;4998151;28;46167;-76
2023/01/21 00:08:19;;;;;;;;;15.33;14.00;;;;;9.04;100.00;101885.19;5032136;28;45442;-76
2023/01/21 00:10:44;;;;;;;;;13.33;12.00;;;;;9.07;100.00;101884.06;5019795;28;45384;-77
2023/01/21 00:13:09;;;;;;;;;13.67;13.00;;;;;9.12;100.00;101888.22;5024185;28;45454;-76
2023/01/21 00:15:35;;;;;;;;;11.00;11.00;;;;;9.02;100.00;101881.72;5022096;28;45340;-77
2023/01/21 00:18:01;;;;;;;;;12.00;11.33;;;;;8.88;100.00;101881.84;5018842;28;45308;-76
2023/01/21 00:20:26;;;;;;;;;11.00;11.00;;;;;8.92;100.00;101886.03;5035398;28;45436;-76
2023/01/21 00:22:54;;;;;;;;;15.67;12.00;;;;;9.04;100.00;101885.19;5022328;28;45420;-74
2023/01/21 00:25:20;;;;;;;;;13.00;11.00;;;;;8.89;100.00;101889.88;5036739;28;46766;-75
2023/01/21 00:27:46;;;;;;;;;15.00;11.33;;;;;8.76;100.00;101880.88;5022356;28;45440;-75
2023/01/21 00:30:12;;;;;;;;;17.33;14.00;;;;;8.75;100.00;101884.56;5019862;28;45455;-75
2023/01/21 00:32:37;;;;;;;;;10.00;10.00;;;;;9.00;100.00;101894.50;5021974;28;45374;-76
2023/01/21 00:35:04;;;;;;;;;17.67;11.33;;;;;9.18;100.00;101900.44;5035330;28;47914;-76
2023/01/21 00:37:30;;;;;;;;;13.00;11.33;;;;;8.99;100.00;101901.75;4999460;28;45467;-76
2023/01/21 00:39:55;;;;;;;;;12.00;10.00;;;;;9.04;100.00;101911.44;5000057;28;45389;-76
2023/01/21 00:42:20;;;;;;;;;12.67;9.67;;;;;9.03;100.00;101907.84;5019384;28;45347;-76
2023/01/21 00:44:46;;;;;;;;;6.67;6.67;;;;;9.03;100.00;101918.69;5036465;28;47191;-75
2023/01/21 00:47:11;;;;;;;;;9.00;7.00;;;;;9.01;100.00;101917.91;5002421;28;45429;-75
2023/01/21 00:49:37;;;;;;;;;7.67;6.67;;;;;8.81;100.00;101905.81;5022108;28;45605;-75
2023/01/21 00:52:02;;;;;;;;;8.00;6.67;;;;;8.98;100.00;101915.44;5034104;28;45373;-75
2023/01/21 00:54:30;;;;;;;;;3.00;3.00;;;;;8.95;100.00;101924.66;5021455;28;45753;-75
2023/01/21 00:56:55;;;;;;;;;12.00;9.33;;;;;8.87;100.00;101928.88;5017728;28;45260;-76
2023/01/21 00:59:20;;;;;;;;;6.00;6.00;;;;;8.81;100.00;101916.63;5021575;28;45349;-76
2023/01/21 01:01:46;;;;;;;;;6.00;6.00;;;;;8.87;100.00;101921.63;5018241;28;45665;-76
2023/01/21 01:04:11;;;;;;;;;11.67;11.67;;;;;8.81;100.00;101926.63;5022088;28;45462;-76
2023/01/21 01:06:37;;;;;;;;;8.67;7.67;;;;;8.80;100.00;101933.00;5019528;28;45312;-76
2023/01/21 01:09:02;;;;;;;;;4.33;4.33;;;;;8.88;100.00;101933.34;5021593;28;45252;-76
2023/01/21 01:11:29;;;;;;;;;11.00;9.33;;;;;8.79;100.00;101928.56;5016611;28;45606;-76
2023/01/21 01:13:55;;;;;;;;;7.00;6.00;;;;;8.68;100.00;101933.88;5022268;28;45696;-76
2023/01/21 01:16:21;;;;;;;;;6.67;6.67;;;;;8.56;100.00;101928.31;5013723;28;45344;-76
2023/01/21 01:18:47;;;;;;;;;9.00;7.00;;;;;8.76;100.00;101932.38;5022182;28;45334;-75
2023/01/21 01:21:16;;;;;;;;;12.33;9.00;;;;;8.64;100.00;101935.03;5015890;28;45509;-76
2023/01/21 01:23:42;;;;;;;;;13.67;10.00;;;;;8.70;100.00;101942.75;5004499;28;47632;-75
2023/01/21 01:26:12;;;;;;;;;10.00;10.00;;;;;8.63;100.00;101946.84;5016824;28;45504;-76
2023/01/21 01:28:37;;;;;;;;;9.33;7.00;;;;;8.65;100.00;101958.47;5020365;28;45395;-76
2023/01/21 01:31:05;;;;;;;;;10.67;9.00;;;;;8.76;100.00;101955.88;5016807;28;45286;-76
2023/01/21 01:33:31;;;;;;;;;14.33;12.33;;;;;8.74;100.00;101947.00;5022401;28;45338;-76
2023/01/21 01:36:01;;;;;;;;;11.67;10.00;;;;;8.60;100.00;101966.91;5015935;28;45215;-75
2023/01/21 01:38:26;;;;;;;;;15.00;14.67;;;;;8.53;100.00;101961.06;5018093;28;45338;-76
2023/01/21 01:40:52;;;;;;;;;19.67;18.67;;;;;8.53;100.00;101958.34;5016893;28;45363;-76
2023/01/21 01:43:22;;;;;;;;;17.67;16.00;;;;;8.47;100.00;101972.31;5018923;28;46491;-75
2023/01/21 01:45:48;;;;;;;;;21.33;18.67;;;;;8.59;100.00;101982.31;5012317;28;45361;-75
2023/01/21 01:48:20;;;;;;;;;21.00;15.00;;;;;8.76;100.00;101985.69;5017658;28;45482;-76
2023/01/21 01:50:47;;;;;;;;;23.00;22.00;;;;;8.65;100.00;101981.00;5011372;28;45482;-76
2023/01/21 01:53:14;;;;;;;;;19.00;18.00;;;;;8.49;100.00;101986.59;5017306;28;45547;-76
2023/01/21 01:55:41;;;;;;;;;18.75;17.75;;;;;8.62;100.00;101970.38;5016882;28;45434;-76
2023/01/21 01:58:10;;;;;;;;;20.67;20.33;;;;;8.79;100.00;101982.75;5022078;28;45353;-75
2023/01/21 02:00:36;;;;;;;;;25.67;19.67;;;;;8.56;100.00;101996.03;5017394;28;45300;-75
2023/01/21 02:05:47;;;;;;;;;20.50;19.25;;;;;8.54;100.00;102016.09;5021608;28;45706;-75
2023/01/21 02:08:12;;;;;;;;;14.33;13.67;;;;;8.61;100.00;102017.41;5007877;28;45190;-76
2023/01/21 02:10:38;;;;;;;;;17.50;17.50;;;;;8.49;100.00;102016.41;5023280;28;45398;-76
2023/01/21 02:13:04;;;;;;;;;10.33;8.33;;;;;8.33;100.00;102012.97;5025609;28;45381;-75
2023/01/21 02:15:59;;;;;;;;;19.00;17.67;;;;;8.34;100.00;102033.69;5005275;28;45425;-76
2023/01/21 02:18:35;;;;;;;;;13.67;11.00;;;;;8.27;100.00;102036.84;5040493;28;45343;-76
2023/01/21 02:21:06;;;;;;;;;8.33;6.33;;;;;8.09;100.00;102047.09;5021772;28;45412;-75
2023/01/21 02:23:50;;;;;;;;;14.33;13.33;;;;;8.21;100.00;102040.84;5040209;28;48664;-75
2023/01/21 02:26:53;;;;;;;;;17.33;14.33;;;;;8.41;100.00;102043.13;5021841;28;45328;-75
2023/01/21 02:29:51;;;;;;;;;15.67;13.33;;;;;8.01;100.00;102047.59;5033070;28;45345;-75
2023/01/21 02:32:38;;;;;;;;;10.67;9.33;;;;;7.82;100.00;102053.31;5003164;28;45308;-75
2023/01/21 02:35:22;;;;;;;;;16.67;13.33;;;;;8.12;100.00;102073.94;5019711;28;45844;-75
2023/01/21 02:38:05;;;;;;;;;18.00;14.00;;;;;7.67;100.00;102085.91;5018990;28;45658;-75
2023/01/21 02:40:52;;;;;;;;;16.00;14.33;;;;;7.60;100.00;102074.59;5021017;28;45351;-75
2023/01/21 02:43:48;;;;;;;;;19.33;15.33;;;;;7.62;100.00;102113.22;5021144;28;45500;-75
2023/01/21 02:46:36;;;;;;;;;19.33;11.33;;;;;7.40;100.00;102097.47;5001307;28;45600;-75
2023/01/21 02:49:29;;;;;;;;;13.00;10.33;;;;;7.43;100.00;102120.75;5039772;28;45446;-75
2023/01/21 02:51:54;;;;;;;;;16.25;16.00;;;;;7.21;100.00;102123.91;4974484;28;45526;-75
2023/01/21 02:54:38;;;;;;;;;21.75;21.50;;;;;7.11;100.00;102120.03;5040441;28;45334;-76
2023/01/21 02:57:15;;;;;;;;;22.25;21.25;;;;;7.03;100.00;102135.81;5021048;28;48213;-74
2023/01/21 02:59:46;;;;;;;;;24.25;22.00;;;;;7.16;100.00;102130.56;5023985;28;45448;-74
2023/01/21 03:02:26;;;;;;;;;21.75;20.00;;;;;7.30;100.00;102136.88;5005716;28;45476;-74
2023/01/21 03:05:18;;;;;;;;;21.50;18.25;;;;;7.04;100.00;102137.56;5021643;28;45469;-74
2023/01/21 03:07:50;;;;;;;;;22.50;20.00;;;;;7.11;100.00;102149.75;5034821;28;47462;-74
2023/01/21 03:10:30;;;;;;;;;28.50;24.75;;;;;7.27;100.00;102147.00;5020619;28;46128;-74
2023/01/21 03:16:55;;;;;;;;;23.75;21.25;;;;;7.13;100.00;102168.59;5022398;28;45439;-73
2023/01/21 03:19:01;;;;;;;;;22.25;21.75;;;;;6.82;100.00;102153.31;5024326;28;45473;-74
2023/01/21 03:21:29;;;;;;;;;20.25;18.25;;;;;6.97;100.00;102155.97;5014208;28;45226;-74
2023/01/21 03:23:58;;;;;;;;;31.00;24.25;;;;;6.94;100.00;102172.34;5040116;28;45342;-74
2023/01/21 03:26:31;;;;;;;;;21.50;19.75;;;;;6.83;100.00;102172.13;4998321;28;45190;-73
2023/01/21 03:29:02;;;;;;;;;23.50;19.50;;;;;6.71;100.00;102172.00;5013412;28;45592;-74
2023/01/21 03:31:32;;;;;;;;;26.50;21.00;;;;;6.48;100.00;102160.69;5034066;28;45311;-74
2023/01/21 03:34:02;;;;;;;;;8.25;3.00;;;;;6.56;100.00;102182.72;5029945;28;45351;-74
2023/01/21 03:36:40;;;;;;;;;18.00;13.75;;;;;6.51;100.00;102186.59;5017860;28;45508;-74
2023/01/21 03:39:21;;;;;;;;;22.75;16.50;;;;;6.27;100.00;102183.50;5006201;28;47271;-75
2023/01/21 03:41:47;;;;;;;;;33.25;22.25;;;;;6.39;100.00;102198.13;5032746;28;45229;-75
2023/01/21 03:44:12;;;;;;;;;24.75;21.50;;;;;6.66;100.00;102201.94;5024384;28;45211;-75
2023/01/21 03:46:57;;;;;;;;;29.50;23.50;;;;;6.75;100.00;102212.22;4998897;28;45350;-75
2023/01/21 03:49:34;;;;;;;;;24.50;22.25;;;;;6.67;100.00;102203.69;5024084;28;46639;-75
2023/01/21 03:52:02;;;;;;;;;20.25;16.25;;;;;6.57;100.00;102210.59;5018779;28;45344;-75
2023/01/21 03:54:27;;;;;;;;;27.75;27.00;;;;;6.69;100.00;102212.59;5021965;28;45392;-75
2023/01/21 03:56:53;;;;;;;;;22.75;20.25;;;;;6.47;100.00;102212.94;5007212;28;45670;-75
2023/01/21 03:59:18;;;;;;;;;28.25;17.00;;;;;6.56;100.00;102219.66;5023588;28;45398;-75
2023/01/21 04:01:43;;;;;;;;;30.25;25.25;;;;;6.58;100.00;102218.56;5016921;28;45559;-75
2023/01/21 04:04:09;;;;;;;;;28.75;20.00;;;;;6.50;100.00;102220.00;5020798;28;46303;-75
2023/01/21 04:06:35;;;;;;;;;25.25;24.75;;;;;6.35;100.00;102223.56;5019868;28;45406;-75
2023/01/21 04:09:02;;;;;;;;;20.50;18.75;;;;;6.30;100.00;102204.03;5021853;28;45421;-76
2023/01/21 04:11:28;;;;;;;;;23.50;21.75;;;;;6.54;100.00;102222.44;5021696;28;45357;-74
2023/01/21 04:13:53;;;;;;;;;22.25;19.50;;;;;6.58;100.00;102236.59;5017274;28;45340;-74
2023/01/21 04:16:18;;;;;;;;;40.75;29.50;;;;;6.48;100.00;102230.88;5026561;28;45438;-73
2023/01/21 04:18:44;;;;;;;;;27.75;20.00;;;;;6.29;100.00;102240.94;5021730;28;45303;-75
2023/01/21 04:21:09;;;;;;;;;29.75;27.00;;;;;6.27;100.00;102260.88;5015780;28;45391;-74
2023/01/21 04:23:34;;;;;;;;;39.00;25.75;;;;;6.23;100.00;102235.88;5017161;28;46132;-74
2023/01/21 04:26:00;;;;;;;;;26.50;19.50;;;;;6.23;100.00;102249.38;5011500;28;45396;-74
2023/01/21 04:28:25;;;;;;;;;25.00;20.75;;;;;6.31;100.00;102255.22;5021939;28;45342;-75
2023/01/21 04:30:51;;;;;;;;;28.50;24.50;;;;;6.24;100.00;102249.28;5032520;28;45791;-73
2023/01/21 04:33:16;;;;;;;;;31.00;27.25;;;;;6.31;100.00;102249.81;5021337;28;45889;-74
2023/01/21 04:35:42;;;;;;;;;28.75;25.25;;;;;6.17;100.00;102258.69;5017460;28;45462;-74
2023/01/21 04:38:07;;;;;;;;;28.75;25.75;;;;;6.05;100.00;102248.56;5023180;28;45596;-74
2023/01/21 04:40:32;;;;;;;;;27.75;25.50;;;;;6.00;100.00;102256.00;5032272;28;45456;-74
2023/01/21 04:42:58;;;;;;;;;20.75;17.25;;;;;5.73;100.00;102241.28;5023256;28;45300;-74
2023/01/21 04:45:23;;;;;;;;;31.75;27.25;;;;;5.84;100.00;102263.16;5000169;28;45257;-74
2023/01/21 04:47:48;;;;;;;;;18.50;13.25;;;;;5.77;100.00;102259.06;5022144;28;45646;-74
2023/01/21 04:50:15;;;;;;;;;23.50;23.25;;;;;5.93;100.00;102260.00;5018581;28;45235;-74
2023/01/21 04:52:41;;;;;;;;;26.25;20.25;;;;;5.94;100.00;102261.75;5021402;28;45342;-74
2023/01/21 04:55:07;;;;;;;;;37.25;21.75;;;;;5.87;100.00;102265.69;5020857;28;45578;-74
2023/01/21 04:57:33;;;;;;;;;27.25;24.00;;;;;5.87;100.00;102273.78;5022578;28;45439;-75
2023/01/21 04:59:58;;;;;;;;;28.25;20.00;;;;;5.68;100.00;102265.78;5020852;28;45528;-74
2023/01/21 05:02:23;;;;;;;;;28.25;23.50;;;;;5.68;100.00;102286.50;5035785;28;45514;-74
2023/01/21 05:04:49;;;;;;;;;33.75;27.00;;;;;5.68;100.00;102267.63;5021415;28;45401;-74
2023/01/21 05:07:14;;;;;;;;;34.75;26.00;;;;;5.74;100.00;102259.19;5022444;28;45497;-74
2023/01/21 05:09:40;;;;;;;;;36.00;26.50;;;;;5.73;100.00;102279.03;5021333;28;45454;-75
2023/01/21 05:12:06;;;;;;;;;32.00;24.50;;;;;5.58;100.00;102274.44;5022295;28;45521;-74
2023/01/21 05:14:32;;;;;;;;;36.25;25.75;;;;;5.66;100.00;102277.59;5020758;28;45332;-74
2023/01/21 05:16:57;;;;;;;;;23.75;23.25;;;;;5.71;100.00;102276.41;5002536;28;46182;-74
2023/01/21 05:19:23;;;;;;;;;30.50;26.25;;;;;5.66;100.00;102266.81;5022729;28;45442;-74
2023/01/21 05:21:48;;;;;;;;;32.50;24.25;;;;;5.56;100.00;102263.72;5012941;28;45510;-75
2023/01/21 05:24:14;;;;;;;;;35.75;29.25;;;;;5.63;100.00;102277.75;5023057;28;45323;-74
2023/01/21 05:26:39;;;;;;;;;25.00;16.00;;;;;5.43;100.00;102271.56;4997421;28;46688;-75
2023/01/21 05:29:04;;;;;;;;;29.00;20.00;;;;;5.45;100.00;102283.16;5022590;28;45206;-75
2023/01/21 05:31:30;;;;;;;;;37.00;27.25;;;;;5.41;100.00;102289.63;5019248;28;45598;-75
2023/01/21 05:33:55;;;;;;;;;34.25;26.00;;;;;5.41;100.00;102295.03;5022892;28;45221;-75
2023/01/21 05:36:21;;;;;;;;;37.75;31.75;;;;;5.45;100.00;102284.97;5017443;28;46185;-75
2023/01/21 05:38:46;;;;;;;;;32.00;29.75;;;;;5.29;100.00;102284.88;5022306;28;45384;-76
2023/01/21 05:41:11;;;;;;;;;32.75;25.50;;;;;5.41;100.00;102292.34;5021771;28;45385;-74
2023/01/21 05:43:37;;;;;;;;;33.75;30.00;;;;;5.29;100.00;102300.16;5026519;28;45197;-75
2023/01/21 05:46:02;;;;;;;;;32.00;27.25;;;;;5.28;100.00;102302.00;5000921;28;47066;-74
2023/01/21 05:48:28;;;;;;;;;31.50;19.00;;;;;5.36;100.00;102307.88;5026056;28;45399;-74
2023/01/21 05:50:54;;;;;;;;;31.50;28.25;;;;;5.31;100.00;102307.25;5022954;28;45562;-74
2023/01/21 05:53:19;;;;;;;;;37.75;32.50;;;;;5.02;100.00;102305.13;5026988;28;45331;-74
2023/01/21 05:55:45;;;;;;;;;39.25;34.00;;;;;5.23;100.00;102313.97;5023632;28;45297;-74
2023/01/21 05:58:10;;;;;;;;;42.75;35.75;;;;;4.98;100.00;102312.44;5025800;28;45412;-75
2023/01/21 06:00:36;;;;;;;;;36.50;27.00;;;;;5.19;100.00;102317.75;5002967;28;45411;-74
2023/01/21 06:03:03;;;;;;;;;36.75;29.25;;;;;4.92;100.00;102303.81;5023326;28;45418;-74
2023/01/21 06:05:29;;;;;;;;;37.25;30.00;;;;;4.98;100.00;102311.56;5022050;28;45579;-74
2023/01/21 06:07:54;;;;;;;;;34.50;22.75;;;;;5.17;100.00;102320.53;5005628;28;45366;-74
2023/01/21 06:10:20;;;;;;;;;33.75;24.00;;;;;5.13;100.00;102335.06;5023372;28;45558;-75
2023/01/21 06:12:49;;;;;;;;;47.75;39.75;;;;;5.10;100.00;102321.78;5025684;28;45354;-75
2023/01/21 06:15:15;;;;;;;;;45.50;39.50;;;;;5.10;100.00;102329.84;5023480;28;45510;-76
2023/01/21 06:17:40;;;;;;;;;49.25;36.75;;;;;5.04;100.00;102330.16;5022363;28;45426;-75
2023/01/21 06:20:07;;;;;;;;;39.50;31.25;;;;;5.05;100.00;102332.75;5023163;28;45276;-76
2023/01/21 06:22:32;;;;;;;;;42.00;32.75;;;;;5.02;100.00;102334.75;5024923;28;45511;-75
2023/01/21 06:24:58;;;;;;;;;42.50;35.75;;;;;4.97;100.00;102331.38;5024147;28;45996;-75
2023/01/21 06:27:23;;;;;;;;;37.75;30.50;;;;;5.15;100.00;102343.09;5036742;28;45334;-75
2023/01/21 06:29:48;;;;;;;;;40.25;33.50;;;;;5.07;100.00;102332.69;5023644;28;45429;-75
2023/01/21 06:32:14;;;;;;;;;36.75;29.00;;;;;5.11;100.00;102345.06;5022744;28;45446;-76
2023/01/21 06:34:39;;;;;;;;;27.75;26.50;;;;;5.17;100.00;102351.97;5038767;28;48267;-74
2023/01/21 06:37:04;;;;;;;;;37.25;33.00;;;;;5.17;100.00;102349.28;5021534;28;45293;-75
2023/01/21 06:39:30;;;;;;;;;44.75;36.00;;;;;4.83;100.00;102326.66;5024939;28;45237;-75
2023/01/21 06:41:55;;;;;;;;;46.25;41.25;;;;;5.01;100.00;102354.53;5022362;28;45372;-75
2023/01/21 06:44:21;;;;;;;;;43.00;32.50;;;;;4.90;100.00;102357.72;5025081;28;45697;-76
2023/01/21 06:46:46;;;;;;;;;34.75;28.00;;;;;5.01;100.00;102350.03;5021806;28;45246;-76
2023/01/21 06:49:11;;;;;;;;;49.50;41.25;;;;;4.96;100.00;102346.69;5022700;28;45410;-76
2023/01/21 06:51:37;;;;;;;;;47.50;37.25;;;;;4.91;100.00;102366.69;5003836;28;45332;-76
2023/01/21 06:54:02;;;;;;;;;39.50;37.75;;;;;4.91;100.00;102375.63;5024896;28;46415;-75
2023/01/21 06:56:28;;;;;;;;;48.00;40.75;;;;;4.97;100.00;102379.84;5019709;28;45383;-75
2023/01/21 06:58:53;;;;;;;;;48.75;39.50;;;;;5.07;100.00;102378.47;5039955;28;45410;-75
2023/01/21 07:01:18;;;;;;;;;46.00;36.75;;;;;5.06;100.00;102379.44;5020715;28;45952;-75
2023/01/21 07:03:43;;;;;;;;;50.75;41.75;;;;;5.06;100.00;102379.44;5039451;28;47066;-75
2023/01/21 07:06:09;;;;;;;;;45.50;40.00;;;;;4.89;100.00;102393.72;5022396;28;45387;-76
2023/01/21 07:08:34;;;;;;;;;40.75;36.25;;;;;4.88;100.00;102391.97;5024566;28;45378;-76
2023/01/21 07:11:00;;;;;;;;;62.50;44.00;;;;;5.03;100.00;102401.13;5021520;28;45493;-75
2023/01/21 07:13:25;;;;;;;;;45.50;35.75;;;;;4.86;100.00;102395.66;5024564;28;45678;-76
2023/01/21 07:15:51;;;;;;;;;54.75;40.75;;;;;4.93;100.00;102406.06;5022107;28;45387;-76
2023/01/21 07:18:17;;;;;;;;;51.75;42.25;;;;;4.74;100.00;102399.81;5024440;28;45300;-75
2023/01/21 07:20:43;;;;;;;;;53.00;37.00;;;;;4.93;100.00;102419.53;5021242;28;45485;-75
2023/01/21 07:23:08;;;;;;;;;39.75;32.50;;;;;4.86;100.00;102409.13;5023057;28;46347;-75
2023/01/21 07:25:36;;;;;;;;;61.25;42.25;;;;;4.83;100.00;102431.69;5017681;28;45405;-76
2023/01/21 07:28:01;;;;;;;;;54.25;45.00;;;;;4.83;100.00;102436.19;5006273;28;45246;-76
2023/01/21 07:30:27;;;;;;;;;54.25;42.75;;;;;4.70;100.00;102436.75;5019192;28;45351;-75
2023/01/21 07:32:52;;;;;;;;;58.75;45.75;;;;;4.80;100.00;102442.59;5023897;28;46453;-75
2023/01/21 07:35:18;;;;;;;;;37.25;32.25;;;;;4.65;100.00;102438.78;5018517;28;45510;-76
2023/01/21 07:37:43;;;;;;;;;57.50;42.25;;;;;4.76;100.00;102448.19;5022451;28;45329;-76
2023/01/21 07:40:09;;;;;;;;;64.00;47.25;;;;;4.79;100.00;102458.81;5021302;28;45457;-76
2023/01/21 07:42:34;;;;;;;;;42.00;36.00;;;;;4.67;100.00;102439.59;5020342;28;45421;-75
2023/01/21 07:45:02;;;;;;;;;59.00;45.75;;;;;4.85;100.00;102450.47;5004103;28;45852;-76
2023/01/21 07:47:28;;;;;;;;;63.50;44.50;;;;;4.66;100.00;102455.81;5020186;28;45347;-76
2023/01/21 07:49:53;;;;;;;;;58.50;43.25;;;;;4.85;100.00;102469.31;5004116;28;45305;-75
2023/01/21 07:52:18;;;;;;;;;54.00;39.75;;;;;4.83;100.00;102473.88;5019189;28;46722;-75
2023/01/21 07:54:44;;;;;;;;;52.50;42.00;;;;;4.71;100.00;102461.88;5018709;28;45245;-76
2023/01/21 07:57:09;;;;;;;;;53.75;46.25;;;;;4.83;100.00;102468.50;5014680;28;45405;-75
2023/01/21 07:59:34;;;;;;;;;57.75;36.25;;;;;4.80;100.00;102490.19;5021291;28;45381;-77
2023/01/21 08:02:00;;;;;;;;;48.00;36.25;;;;;4.68;100.00;102481.72;5019490;28;45432;-76
2023/01/21 08:04:26;;;;;;;;;47.25;41.00;;;;;4.66;100.00;102482.75;5023577;28;45308;-75
2023/01/21 08:06:55;;;;;;;;;57.25;45.50;;;;;4.62;100.00;102498.16;5020237;28;45581;-74
2023/01/21 08:09:24;;;;;;;;;64.50;48.75;;;;;4.65;100.00;102481.88;5023934;28;45434;-75
2023/01/21 08:11:50;;;;;;;;;71.75;50.25;;;;;4.83;100.00;102504.38;5021161;28;46306;-75
2023/01/21 08:14:15;;;;;;;;;46.25;37.00;;;;;4.86;100.00;102498.00;5023463;28;45409;-75
2023/01/21 08:16:41;;;;;;;;;63.75;42.75;;;;;4.67;100.00;102496.16;5021681;28;45224;-76
2023/01/21 08:19:06;;;;;;;;;64.25;47.00;;;;;4.72;100.00;102500.44;5039089;28;45605;-76
2023/01/21 08:21:32;;;;;;;;;66.00;47.00;;;;;4.72;100.00;102511.19;5034618;28;47112;-76
2023/01/21 08:23:57;;;;;;;;;60.00;45.00;;;;;4.91;100.00;102520.19;5023444;28;45304;-75
2023/01/21 08:26:22;;;;;;;;;51.25;42.75;;;;;4.97;100.00;102514.53;5014884;28;45602;-75
2023/01/21 08:28:47;;;;;;;;;66.75;50.00;;;;;5.06;100.00;102504.22;5023971;28;45295;-77
2023/01/21 08:31:13;;;;;;;;;44.00;36.50;;;;;4.96;100.00;102491.25;5015303;28;46558;-74
2023/01/21 08:33:38;;;;;;;;;67.75;49.00;;;;;5.16;100.00;102512.78;5023241;28;45374;-75
2023/01/21 08:36:06;;;;;;;;;64.25;47.75;;;;;5.17;100.00;102525.28;5021283;28;45422;-75
2023/01/21 08:38:32;;;;;;;;;58.75;48.50;;;;;5.22;100.00;102523.25;5023804;28;45441;-75
2023/01/21 08:40:58;;;;;;;;;57.00;44.00;;;;;5.15;100.00;102524.47;5020716;28;46119;-74
2023/01/21 08:43:24;;;;;;;;;57.50;43.25;;;;;5.45;100.00;102528.47;5023520;28;45284;-74
2023/01/21 08:45:49;;;;;;;;;50.25;39.00;;;;;5.20;100.00;102538.59;5035612;28;45462;-75
2023/01/21 08:48:15;;;;;;;;;65.75;47.50;;;;;5.39;100.00;102538.66;5023405;28;45593;-74
2023/01/21 08:50:40;;;;;;;;;49.25;41.25;;;;;5.25;100.00;102547.38;5002680;28;45668;-75
2023/01/21 08:53:05;;;;;;;;;58.50;43.50;;;;;5.08;100.00;102537.38;5021556;28;46024;-75
2023/01/21 08:55:31;;;;;;;;;65.50;47.50;;;;;5.04;100.00;102537.59;5019120;28;45288;-74
2023/01/21 08:57:57;;;;;;;;;53.25;39.75;;;;;5.19;100.00;102547.63;5021917;28;45456;-75
2023/01/21 09:00:23;;;;;;;;;56.75;40.50;;;;;5.33;100.00;102560.50;5018779;28;45409;-75
2023/01/21 09:02:49;;;;;;;;;69.25;51.75;;;;;5.56;100.00;102559.41;5022429;28;45554;-75
2023/01/21 09:05:14;;;;;;;;;62.00;46.75;;;;;5.51;100.00;102558.75;5019799;28;45427;-75
2023/01/21 09:07:40;;;;;;;;;47.00;32.00;;;;;5.37;100.00;102560.28;5022972;28;45602;-75
2023/01/21 09:10:06;;;;;;;;;62.00;45.75;;;;;5.52;100.00;102552.41;5020551;28;45324;-74
2023/01/21 09:12:32;;;;;;;;;60.75;47.25;;;;;5.61;100.00;102570.88;5022535;28;45514;-77
2023/01/21 09:14:57;;;;;;;;;70.75;55.25;;;;;5.64;100.00;102571.59;5019728;28;45383;-75
2023/01/21 09:17:23;;;;;;;;;39.00;30.25;;;;;5.56;100.00;102562.97;5005033;28;45273;-75
2023/01/21 09:19:48;;;;;;;;;50.50;40.25;;;;;5.52;100.00;102560.50;5035211;28;45512;-75
2023/01/21 09:22:14;;;;;;;;;69.00;49.00;;;;;5.54;100.00;102564.91;5018870;28;45336;-75
2023/01/21 09:24:40;;;;;;;;;58.25;41.00;;;;;5.41;100.00;102551.09;5021682;28;45237;-76
2023/01/21 09:27:06;;;;;;;;;50.00;40.50;;;;;5.43;100.00;102561.81;5018420;28;45692;-75
2023/01/21 09:29:32;;;;;;;;;58.75;46.00;;;;;5.56;100.00;102554.88;5020084;28;47090;-75
2023/01/21 09:31:57;;;;;;;;;63.00;45.75;;;;;5.36;100.00;102557.66;5016395;28;45296;-75
2023/01/21 09:34:23;;;;;;;;;53.50;44.25;;;;;5.33;100.00;102564.03;5020981;28;45316;-75
2023/01/21 09:36:48;;;;;;;;;52.75;35.50;;;;;5.32;100.00;102569.53;5017414;28;45447;-76
2023/01/21 09:39:13;;;;;;;;;53.25;41.25;;;;;5.13;100.00;102574.88;5022291;28;45624;-76
2023/01/21 09:41:44;;;;;;;;;60.00;45.50;;;;;5.28;100.00;102590.34;5031237;28;45308;-76
2023/01/21 09:44:12;;;;;;;;;53.25;39.25;;;;;5.42;100.00;102597.78;5022442;28;45383;-75
2023/01/21 09:46:56;;;;;;;;;48.00;36.00;;;;;5.65;100.00;102592.22;4998311;28;45412;-75
2023/01/21 09:49:27;;;;;;;;;41.25;41.25;;;;;5.43;100.00;102589.63;5021695;28;45634;-76
2023/01/21 09:52:12;;;;;;;;;65.25;45.25;;;;;5.63;100.00;102595.91;5016834;28;45332;-76
2023/01/21 09:54:38;;;;;;;;;57.75;45.25;;;;;5.56;100.00;102595.34;5014735;28;45432;-76
2023/01/21 09:57:18;;;;;;;;;71.50;49.00;;;;;5.57;100.00;102617.78;5002221;28;45241;-76
2023/01/21 10:00:12;;;;;;;;;59.25;44.25;;;;;5.17;100.00;102608.81;5020088;28;46598;-75
2023/01/21 10:02:44;;;;;;;;;44.25;30.50;;;;;5.52;100.00;102636.88;5013738;28;45570;-76
2023/01/21 10:05:40;;;;;;;;;72.00;49.75;;;;;5.95;100.00;102635.78;5028092;28;45261;-76
2023/01/21 10:08:24;;;;;;;;;50.75;45.25;;;;;5.91;100.00;102631.50;5018730;28;45447;-76
2023/01/21 10:10:58;;;;;;;;;68.25;47.50;;;;;5.83;100.00;102628.25;5017407;28;45662;-76
2023/01/21 10:14:01;;;;;;;;;57.75;45.50;;;;;5.95;100.00;102656.50;5021963;28;45431;-75
2023/01/21 10:16:35;;;;;;;;;65.25;48.50;;;;;6.09;100.00;102654.88;5000897;28;45442;-75
2023/01/21 10:19:04;;;;;;;;;62.50;44.25;;;;;6.23;100.00;102651.53;5021872;28;45443;-75
2023/01/21 10:21:29;;;;;;;;;64.00;49.25;;;;;6.28;100.00;102662.13;5015927;28;45401;-75
2023/01/21 10:24:30;;;;;;;;;61.50;43.25;;;;;6.20;100.00;102657.97;5021651;28;45385;-75
2023/01/21 10:26:57;;;;;;;;;56.50;46.50;;;;;5.84;100.00;102648.88;5018671;28;45238;-75
2023/01/21 10:29:24;;;;;;;;;58.50;44.25;;;;;5.83;100.00;102655.22;5025316;28;45520;-77
2023/01/21 10:31:58;;;;;;;;;53.25;43.50;;;;;5.79;100.00;102670.66;5019849;28;45631;-76
2023/01/21 10:34:27;;;;;;;;;61.25;44.75;;;;;5.96;100.00;102666.34;5024870;28;45324;-76
2023/01/21 10:37:04;;;;;;;;;64.00;46.25;;;;;6.27;100.00;102679.25;5003391;28;45472;-76
2023/01/21 10:40:10;;;;;;;;;55.00;45.00;;;;;6.33;100.00;102668.16;5024489;28;45454;-75
2023/01/21 10:42:52;;;;;;;;;40.00;39.25;;;;;6.21;100.00;102667.78;5019791;28;46152;-76
2023/01/21 10:45:35;;;;;;;;;60.50;49.50;;;;;6.47;100.00;102654.84;5021618;28;45174;-75
2023/01/21 10:48:18;;;;;;;;;46.75;43.25;;;;;6.58;100.00;102674.09;5020148;28;45335;-75
2023/01/21 10:50:53;;;;;;;;;60.00;43.75;;;;;6.97;100.00;102665.81;5013890;28;45515;-75
2023/01/21 10:53:35;;;;;;;;;53.00;44.75;;;;;6.80;100.00;102652.28;5025010;28;45294;-75
2023/01/21 10:56:06;;;;;;;;;57.25;44.25;;;;;6.80;100.00;102663.97;5019525;28;45747;-75
2023/01/21 10:58:47;;;;;;;;;66.50;50.25;;;;;6.60;100.00;102677.59;5024682;28;45213;-77
2023/01/21 11:01:29;;;;;;;;;62.75;44.50;;;;;6.67;100.00;102673.63;5021007;28;45309;-74
2023/01/21 11:03:58;;;;;;;;;50.25;39.25;;;;;6.58;100.00;102665.97;5006535;28;46409;-75
2023/01/21 11:06:25;;;;;;;;;42.50;36.50;;;;;6.79;100.00;102651.44;5021330;28;45495;-78
2023/01/21 11:08:55;;;;;;;;;58.25;47.75;;;;;6.61;100.00;102653.22;5022348;28;45322;-74
2023/01/21 11:11:28;;;;;;;;;55.00;43.75;;;;;6.60;100.00;102669.50;5021592;28;45340;-74
2023/01/21 11:13:55;;;;;;;;;64.25;46.00;;;;;6.49;100.00;102658.38;5021646;28;47233;-75
2023/01/21 11:16:33;;;;;;;;;56.50;43.25;;;;;6.57;100.00;102650.75;5000909;28;45436;-74
2023/01/21 11:18:59;;;;;;;;;46.50;41.00;;;;;6.57;100.00;102657.03;5024208;28;45304;-74
2023/01/21 11:21:24;;;;;;;;;37.00;32.75;;;;;6.30;100.00;102652.09;5014046;28;45649;-75
2023/01/21 11:23:53;;;;;;;;;51.50;39.25;;;;;6.37;100.00;102662.53;5024750;28;45490;-75